sensor_id;sensor_type;location;lat;lon;timestamp;temperature;humidity
67769;DHT22;54569;52.018;5.584;2023-06-10T00:00:13;22.20;50.10
67769;DHT22;54569;52.018;5.584;2023-06-10T00:02:42;22.20;50.10
67769;DHT22;54569;52.018;5.584;2023-06-10T00:05:09;22.20;50.10
67769;DHT22;54569;52.018;5.584;2023-06-10T00:07:35;22.10;50.20
67769;DHT22;54569;52.018;5.584;2023-06-10T00:10:05;22.10;50.10
67769;DHT22;54569;52.018;5.584;2023-06-10T00:12:32;22.10;50.00
67769;DHT22;54569;52.018;5.584;2023-06-10T00:15:03;22.00;50.10
67769;DHT22;54569;52.018;5.584;2023-06-10T00:17:30;22.00;50.20
67769;DHT22;54569;52.018;5.584;2023-06-10T00:19:56;22.00;50.10
67769;DHT22;54569;52.018;5.584;2023-06-10T00:22:23;22.00;50.10
67769;DHT22;54569;52.018;5.584;2023-06-10T00:24:50;22.00;50.10
67769;DHT22;54569;52.018;5.584;2023-06-10T00:27:16;22.00;50.20
67769;DHT22;54569;52.018;5.584;2023-06-10T00:29:42;21.90;50.10
67769;DHT22;54569;52.018;5.584;2023-06-10T00:32:09;21.90;50.00
67769;DHT22;54569;52.018;5.584;2023-06-10T00:34:34;21.90;49.90
67769;DHT22;54569;52.018;5.584;2023-06-10T00:37:01;21.90;50.00
67769;DHT22;54569;52.018;5.584;2023-06-10T00:39:26;21.90;49.90
67769;DHT22;54569;52.018;5.584;2023-06-10T00:41:52;21.80;49.80
67769;DHT22;54569;52.018;5.584;2023-06-10T00:44:18;21.80;49.80
67769;DHT22;54569;52.018;5.584;2023-06-10T00:46:44;21.80;49.70
67769;DHT22;54569;52.018;5.584;2023-06-10T00:49:09;21.80;49.70
67769;DHT22;54569;52.018;5.584;2023-06-10T00:51:36;21.70;49.60
67769;DHT22;54569;52.018;5.584;2023-06-10T00:54:02;21.70;49.60
67769;DHT22;54569;52.018;5.584;2023-06-10T00:56:28;21.70;49.60
67769;DHT22;54569;52.018;5.584;2023-06-10T00:58:54;21.70;49.80
67769;DHT22;54569;52.018;5.584;2023-06-10T01:01:20;21.60;49.60
67769;DHT22;54569;52.018;5.584;2023-06-10T01:03:46;21.60;49.60
67769;DHT22;54569;52.018;5.584;2023-06-10T01:06:47;21.60;49.60
67769;DHT22;54569;52.018;5.584;2023-06-10T01:09:30;21.50;49.60
67769;DHT22;54569;52.018;5.584;2023-06-10T01:12:28;21.50;49.90
67769;DHT22;54569;52.018;5.584;2023-06-10T01:14:56;21.50;49.90
67769;DHT22;54569;52.018;5.584;2023-06-10T01:17:23;21.40;49.70
67769;DHT22;54569;52.018;5.584;2023-06-10T01:19:56;21.40;49.70
67769;DHT22;54569;52.018;5.584;2023-06-10T01:22:26;21.40;49.70
67769;DHT22;54569;52.018;5.584;2023-06-10T01:24:58;21.40;50.50
67769;DHT22;54569;52.018;5.584;2023-06-10T01:27:33;21.30;49.70
67769;DHT22;54569;52.018;5.584;2023-06-10T01:30:28;21.30;49.70
67769;DHT22;54569;52.018;5.584;2023-06-10T01:32:55;21.30;49.90
67769;DHT22;54569;52.018;5.584;2023-06-10T01:35:25;21.20;49.70
67769;DHT22;54569;52.018;5.584;2023-06-10T01:37:53;21.20;49.70
67769;DHT22;54569;52.018;5.584;2023-06-10T01:40:21;21.20;49.70
67769;DHT22;54569;52.018;5.584;2023-06-10T01:42:49;21.10;49.60
67769;DHT22;54569;52.018;5.584;2023-06-10T01:45:15;21.10;49.80
67769;DHT22;54569;52.018;5.584;2023-06-10T01:47:40;21.10;49.70
67769;DHT22;54569;52.018;5.584;2023-06-10T01:50:07;21.10;50.10
67769;DHT22;54569;52.018;5.584;2023-06-10T01:52:34;21.10;50.20
67769;DHT22;54569;52.018;5.584;2023-06-10T01:55:00;21.00;50.00
67769;DHT22;54569;52.018;5.584;2023-06-10T01:57:26;21.00;50.00
67769;DHT22;54569;52.018;5.584;2023-06-10T01:59:52;20.90;50.00
67769;DHT22;54569;52.018;5.584;2023-06-10T02:02:18;20.90;50.10
67769;DHT22;54569;52.018;5.584;2023-06-10T02:04:44;20.90;50.20
67769;DHT22;54569;52.018;5.584;2023-06-10T02:07:09;20.80;50.10
67769;DHT22;54569;52.018;5.584;2023-06-10T02:09:35;20.80;50.20
67769;DHT22;54569;52.018;5.584;2023-06-10T02:12:05;20.80;50.30
67769;DHT22;54569;52.018;5.584;2023-06-10T02:14:33;20.80;50.30
67769;DHT22;54569;52.018;5.584;2023-06-10T02:16:59;20.70;50.40
67769;DHT22;54569;52.018;5.584;2023-06-10T02:19:26;20.70;50.60
67769;DHT22;54569;52.018;5.584;2023-06-10T02:21:52;20.70;50.60
67769;DHT22;54569;52.018;5.584;2023-06-10T02:24:18;20.70;50.60
67769;DHT22;54569;52.018;5.584;2023-06-10T02:26:43;20.60;50.60
67769;DHT22;54569;52.018;5.584;2023-06-10T02:29:09;20.60;50.80
67769;DHT22;54569;52.018;5.584;2023-06-10T02:31:35;20.60;50.70
67769;DHT22;54569;52.018;5.584;2023-06-10T02:34:02;20.50;50.80
67769;DHT22;54569;52.018;5.584;2023-06-10T02:36:29;20.60;50.90
67769;DHT22;54569;52.018;5.584;2023-06-10T02:38:55;20.50;51.00
67769;DHT22;54569;52.018;5.584;2023-06-10T02:41:21;20.50;51.00
67769;DHT22;54569;52.018;5.584;2023-06-10T02:43:49;20.40;51.40
67769;DHT22;54569;52.018;5.584;2023-06-10T02:46:15;20.40;51.20
67769;DHT22;54569;52.018;5.584;2023-06-10T02:48:43;20.30;51.20
67769;DHT22;54569;52.018;5.584;2023-06-10T02:51:14;20.30;51.30
67769;DHT22;54569;52.018;5.584;2023-06-10T02:53:44;20.30;51.30
67769;DHT22;54569;52.018;5.584;2023-06-10T02:56:12;20.30;51.40
67769;DHT22;54569;52.018;5.584;2023-06-10T02:58:38;20.30;51.60
67769;DHT22;54569;52.018;5.584;2023-06-10T03:01:05;20.30;51.80
67769;DHT22;54569;52.018;5.584;2023-06-10T03:03:40;20.20;51.70
67769;DHT22;54569;52.018;5.584;2023-06-10T03:06:10;20.20;51.80
67769;DHT22;54569;52.018;5.584;2023-06-10T03:08:37;20.20;51.90
67769;DHT22;54569;52.018;5.584;2023-06-10T03:11:08;20.20;51.90
67769;DHT22;54569;52.018;5.584;2023-06-10T03:13:35;20.10;51.90
67769;DHT22;54569;52.018;5.584;2023-06-10T03:16:01;20.10;52.00
67769;DHT22;54569;52.018;5.584;2023-06-10T03:18:29;20.10;52.20
67769;DHT22;54569;52.018;5.584;2023-06-10T03:20:55;20.10;52.20
67769;DHT22;54569;52.018;5.584;2023-06-10T03:23:23;20.10;52.20
67769;DHT22;54569;52.018;5.584;2023-06-10T03:25:49;20.10;52.30
67769;DHT22;54569;52.018;5.584;2023-06-10T03:28:17;20.00;52.30
67769;DHT22;54569;52.018;5.584;2023-06-10T03:30:43;20.00;52.30
67769;DHT22;54569;52.018;5.584;2023-06-10T03:33:10;20.00;52.30
67769;DHT22;54569;52.018;5.584;2023-06-10T03:35:37;20.00;52.40
67769;DHT22;54569;52.018;5.584;2023-06-10T03:38:04;19.90;52.40
67769;DHT22;54569;52.018;5.584;2023-06-10T03:40:30;19.90;52.80
67769;DHT22;54569;52.018;5.584;2023-06-10T03:42:58;19.90;52.60
67769;DHT22;54569;52.018;5.584;2023-06-10T03:45:23;19.90;53.40
67769;DHT22;54569;52.018;5.584;2023-06-10T03:47:50;19.90;53.00
67769;DHT22;54569;52.018;5.584;2023-06-10T03:50:21;19.90;52.90
67769;DHT22;54569;52.018;5.584;2023-06-10T03:52:48;19.80;52.90
67769;DHT22;54569;52.018;5.584;2023-06-10T03:55:16;19.80;52.90
67769;DHT22;54569;52.018;5.584;2023-06-10T03:57:44;19.80;52.90
67769;DHT22;54569;52.018;5.584;2023-06-10T04:00:11;19.80;52.90
67769;DHT22;54569;52.018;5.584;2023-06-10T04:02:40;19.80;53.10
67769;DHT22;54569;52.018;5.584;2023-06-10T04:05:41;19.80;53.30
67769;DHT22;54569;52.018;5.584;2023-06-10T04:08:08;19.80;53.30
67769;DHT22;54569;52.018;5.584;2023-06-10T04:10:33;19.80;53.30
67769;DHT22;54569;52.018;5.584;2023-06-10T04:13:00;19.80;53.50
67769;DHT22;54569;52.018;5.584;2023-06-10T04:15:30;19.80;53.30
67769;DHT22;54569;52.018;5.584;2023-06-10T04:17:58;19.80;53.30
67769;DHT22;54569;52.018;5.584;2023-06-10T04:20:25;19.70;53.40
67769;DHT22;54569;52.018;5.584;2023-06-10T04:22:51;19.70;53.40
67769;DHT22;54569;52.018;5.584;2023-06-10T04:25:18;19.80;53.50
67769;DHT22;54569;52.018;5.584;2023-06-10T04:27:44;19.80;53.40
67769;DHT22;54569;52.018;5.584;2023-06-10T04:30:11;19.80;53.50
67769;DHT22;54569;52.018;5.584;2023-06-10T04:32:38;19.80;53.70
67769;DHT22;54569;52.018;5.584;2023-06-10T04:35:07;19.80;53.80
67769;DHT22;54569;52.018;5.584;2023-06-10T04:37:32;19.80;54.00
67769;DHT22;54569;52.018;5.584;2023-06-10T04:39:58;19.80;53.90
67769;DHT22;54569;52.018;5.584;2023-06-10T04:42:25;19.80;53.90
67769;DHT22;54569;52.018;5.584;2023-06-10T04:44:52;19.80;53.70
67769;DHT22;54569;52.018;5.584;2023-06-10T04:47:18;19.80;53.70
67769;DHT22;54569;52.018;5.584;2023-06-10T04:49:44;19.80;53.90
67769;DHT22;54569;52.018;5.584;2023-06-10T04:52:10;19.80;54.00
67769;DHT22;54569;52.018;5.584;2023-06-10T04:54:39;19.80;54.10
67769;DHT22;54569;52.018;5.584;2023-06-10T04:57:05;19.90;54.10
67769;DHT22;54569;52.018;5.584;2023-06-10T04:59:32;19.90;54.00
67769;DHT22;54569;52.018;5.584;2023-06-10T05:01:57;19.90;54.00
67769;DHT22;54569;52.018;5.584;2023-06-10T05:04:23;19.90;53.90
67769;DHT22;54569;52.018;5.584;2023-06-10T05:06:49;19.90;54.00
67769;DHT22;54569;52.018;5.584;2023-06-10T05:09:15;19.90;54.30
67769;DHT22;54569;52.018;5.584;2023-06-10T05:11:41;20.00;54.30
67769;DHT22;54569;52.018;5.584;2023-06-10T05:14:06;20.00;54.10
67769;DHT22;54569;52.018;5.584;2023-06-10T05:16:32;20.00;54.30
67769;DHT22;54569;52.018;5.584;2023-06-10T05:18:58;20.10;54.10
67769;DHT22;54569;52.018;5.584;2023-06-10T05:21:23;20.10;54.10
67769;DHT22;54569;52.018;5.584;2023-06-10T05:23:49;20.10;54.40
67769;DHT22;54569;52.018;5.584;2023-06-10T05:26:15;20.20;54.20
67769;DHT22;54569;52.018;5.584;2023-06-10T05:28:42;20.30;54.40
67769;DHT22;54569;52.018;5.584;2023-06-10T05:31:08;20.30;54.50
67769;DHT22;54569;52.018;5.584;2023-06-10T05:33:34;20.30;54.40
67769;DHT22;54569;52.018;5.584;2023-06-10T05:35:59;20.30;54.40
67769;DHT22;54569;52.018;5.584;2023-06-10T05:38:25;20.40;54.50
67769;DHT22;54569;52.018;5.584;2023-06-10T05:40:51;20.40;54.60
67769;DHT22;54569;52.018;5.584;2023-06-10T05:43:16;20.40;54.30
67769;DHT22;54569;52.018;5.584;2023-06-10T05:45:42;20.50;54.20
67769;DHT22;54569;52.018;5.584;2023-06-10T05:48:08;20.50;54.10
67769;DHT22;54569;52.018;5.584;2023-06-10T05:50:34;20.60;53.90
67769;DHT22;54569;52.018;5.584;2023-06-10T05:53:04;20.70;53.90
67769;DHT22;54569;52.018;5.584;2023-06-10T05:55:32;20.70;53.80
67769;DHT22;54569;52.018;5.584;2023-06-10T05:58:01;20.80;53.90
67769;DHT22;54569;52.018;5.584;2023-06-10T06:00:27;20.90;53.70
67769;DHT22;54569;52.018;5.584;2023-06-10T06:02:53;21.00;53.60
67769;DHT22;54569;52.018;5.584;2023-06-10T06:05:19;21.00;53.60
67769;DHT22;54569;52.018;5.584;2023-06-10T06:07:45;21.10;53.50
67769;DHT22;54569;52.018;5.584;2023-06-10T06:10:11;21.20;53.30
67769;DHT22;54569;52.018;5.584;2023-06-10T06:12:36;21.30;53.60
67769;DHT22;54569;52.018;5.584;2023-06-10T06:15:02;21.30;53.20
67769;DHT22;54569;52.018;5.584;2023-06-10T06:17:28;21.40;53.30
67769;DHT22;54569;52.018;5.584;2023-06-10T06:19:54;21.50;53.10
67769;DHT22;54569;52.018;5.584;2023-06-10T06:22:19;21.50;53.10
67769;DHT22;54569;52.018;5.584;2023-06-10T06:24:47;21.60;52.90
67769;DHT22;54569;52.018;5.584;2023-06-10T06:27:14;21.60;52.90
67769;DHT22;54569;52.018;5.584;2023-06-10T06:29:40;21.70;52.60
67769;DHT22;54569;52.018;5.584;2023-06-10T06:32:06;21.70;52.80
67769;DHT22;54569;52.018;5.584;2023-06-10T06:34:32;21.80;52.50
67769;DHT22;54569;52.018;5.584;2023-06-10T06:36:58;21.90;52.40
67769;DHT22;54569;52.018;5.584;2023-06-10T06:39:25;22.00;52.40
67769;DHT22;54569;52.018;5.584;2023-06-10T06:41:51;22.10;52.60
67769;DHT22;54569;52.018;5.584;2023-06-10T06:44:24;22.20;52.50
67769;DHT22;54569;52.018;5.584;2023-06-10T06:46:52;22.30;52.80
67769;DHT22;54569;52.018;5.584;2023-06-10T06:49:18;22.30;52.60
67769;DHT22;54569;52.018;5.584;2023-06-10T06:51:43;22.40;53.00
67769;DHT22;54569;52.018;5.584;2023-06-10T06:54:09;22.50;52.50
67769;DHT22;54569;52.018;5.584;2023-06-10T06:56:35;22.60;52.10
67769;DHT22;54569;52.018;5.584;2023-06-10T06:59:00;22.70;51.90
67769;DHT22;54569;52.018;5.584;2023-06-10T07:01:26;22.70;51.90
67769;DHT22;54569;52.018;5.584;2023-06-10T07:03:51;22.80;51.70
67769;DHT22;54569;52.018;5.584;2023-06-10T07:06:17;22.80;51.80
67769;DHT22;54569;52.018;5.584;2023-06-10T07:08:43;22.90;51.70
67769;DHT22;54569;52.018;5.584;2023-06-10T07:11:08;23.00;51.80
67769;DHT22;54569;52.018;5.584;2023-06-10T07:13:34;23.10;51.60
67769;DHT22;54569;52.018;5.584;2023-06-10T07:16:00;23.20;51.50
67769;DHT22;54569;52.018;5.584;2023-06-10T07:18:26;23.30;51.40
67769;DHT22;54569;52.018;5.584;2023-06-10T07:20:52;23.40;51.40
67769;DHT22;54569;52.018;5.584;2023-06-10T07:23:18;23.40;51.00
67769;DHT22;54569;52.018;5.584;2023-06-10T07:25:43;23.50;51.20
67769;DHT22;54569;52.018;5.584;2023-06-10T07:28:09;23.60;50.60
67769;DHT22;54569;52.018;5.584;2023-06-10T07:30:34;23.80;50.60
67769;DHT22;54569;52.018;5.584;2023-06-10T07:33:00;23.90;50.40
67769;DHT22;54569;52.018;5.584;2023-06-10T07:35:27;23.90;50.40
67769;DHT22;54569;52.018;5.584;2023-06-10T07:37:53;24.00;50.50
67769;DHT22;54569;52.018;5.584;2023-06-10T07:40:18;24.00;50.60
67769;DHT22;54569;52.018;5.584;2023-06-10T07:42:44;24.10;50.50
67769;DHT22;54569;52.018;5.584;2023-06-10T07:45:10;24.20;50.70
67769;DHT22;54569;52.018;5.584;2023-06-10T07:47:36;24.30;50.10
67769;DHT22;54569;52.018;5.584;2023-06-10T07:50:01;24.40;50.20
67769;DHT22;54569;52.018;5.584;2023-06-10T07:52:27;24.50;49.80
67769;DHT22;54569;52.018;5.584;2023-06-10T07:54:54;24.50;50.00
67769;DHT22;54569;52.018;5.584;2023-06-10T07:57:20;24.60;49.70
67769;DHT22;54569;52.018;5.584;2023-06-10T07:59:45;24.80;49.40
67769;DHT22;54569;52.018;5.584;2023-06-10T08:02:11;24.80;49.40
67769;DHT22;54569;52.018;5.584;2023-06-10T08:04:36;24.90;49.20
67769;DHT22;54569;52.018;5.584;2023-06-10T08:07:02;25.00;49.00
67769;DHT22;54569;52.018;5.584;2023-06-10T08:09:28;25.10;49.20
67769;DHT22;54569;52.018;5.584;2023-06-10T08:11:54;25.30;48.60
67769;DHT22;54569;52.018;5.584;2023-06-10T08:14:21;25.40;48.70
67769;DHT22;54569;52.018;5.584;2023-06-10T08:16:47;25.50;48.60
67769;DHT22;54569;52.018;5.584;2023-06-10T08:19:12;25.60;48.10
67769;DHT22;54569;52.018;5.584;2023-06-10T08:21:38;25.60;48.30
67769;DHT22;54569;52.018;5.584;2023-06-10T08:24:06;25.70;48.20
67769;DHT22;54569;52.018;5.584;2023-06-10T08:26:31;25.80;48.20
67769;DHT22;54569;52.018;5.584;2023-06-10T08:28:57;25.90;48.50
67769;DHT22;54569;52.018;5.584;2023-06-10T08:31:23;26.00;47.90
67769;DHT22;54569;52.018;5.584;2023-06-10T08:33:48;26.20;47.80
67769;DHT22;54569;52.018;5.584;2023-06-10T08:36:14;26.30;47.70
67769;DHT22;54569;52.018;5.584;2023-06-10T08:38:40;26.40;47.70
67769;DHT22;54569;52.018;5.584;2023-06-10T08:41:06;26.60;47.60
67769;DHT22;54569;52.018;5.584;2023-06-10T08:43:39;26.70;47.30
67769;DHT22;54569;52.018;5.584;2023-06-10T08:46:08;26.80;47.00
67769;DHT22;54569;52.018;5.584;2023-06-10T08:48:35;26.90;47.00
67769;DHT22;54569;52.018;5.584;2023-06-10T08:51:04;27.00;46.70
67769;DHT22;54569;52.018;5.584;2023-06-10T08:53:32;27.00;46.80
67769;DHT22;54569;52.018;5.584;2023-06-10T08:56:00;27.20;46.90
67769;DHT22;54569;52.018;5.584;2023-06-10T08:58:28;27.20;46.80
67769;DHT22;54569;52.018;5.584;2023-06-10T09:00:54;27.20;46.80
67769;DHT22;54569;52.018;5.584;2023-06-10T09:03:21;27.30;46.40
67769;DHT22;54569;52.018;5.584;2023-06-10T09:05:47;27.50;46.20
67769;DHT22;54569;52.018;5.584;2023-06-10T09:08:15;27.60;46.30
67769;DHT22;54569;52.018;5.584;2023-06-10T09:10:41;27.70;45.70
67769;DHT22;54569;52.018;5.584;2023-06-10T09:13:06;27.90;45.50
67769;DHT22;54569;52.018;5.584;2023-06-10T09:15:32;28.00;46.00
67769;DHT22;54569;52.018;5.584;2023-06-10T09:17:59;28.30;45.60
67769;DHT22;54569;52.018;5.584;2023-06-10T09:20:25;28.40;45.60
67769;DHT22;54569;52.018;5.584;2023-06-10T09:22:51;28.40;45.40
67769;DHT22;54569;52.018;5.584;2023-06-10T09:25:17;28.60;45.90
67769;DHT22;54569;52.018;5.584;2023-06-10T09:27:51;28.60;45.00
67769;DHT22;54569;52.018;5.584;2023-06-10T09:30:28;28.70;45.20
67769;DHT22;54569;52.018;5.584;2023-06-10T09:32:55;28.80;44.70
67769;DHT22;54569;52.018;5.584;2023-06-10T09:35:25;28.90;44.80
67769;DHT22;54569;52.018;5.584;2023-06-10T09:37:56;29.00;44.60
67769;DHT22;54569;52.018;5.584;2023-06-10T09:40:22;29.10;44.60
67769;DHT22;54569;52.018;5.584;2023-06-10T09:42:53;29.20;44.50
67769;DHT22;54569;52.018;5.584;2023-06-10T09:45:20;29.20;44.40
67769;DHT22;54569;52.018;5.584;2023-06-10T09:47:47;29.30;44.70
67769;DHT22;54569;52.018;5.584;2023-06-10T09:50:13;29.40;44.70
67769;DHT22;54569;52.018;5.584;2023-06-10T09:52:39;29.60;44.20
67769;DHT22;54569;52.018;5.584;2023-06-10T09:55:08;29.70;43.90
67769;DHT22;54569;52.018;5.584;2023-06-10T09:57:36;29.70;44.20
67769;DHT22;54569;52.018;5.584;2023-06-10T10:00:09;29.90;44.50
67769;DHT22;54569;52.018;5.584;2023-06-10T10:02:48;30.10;43.00
67769;DHT22;54569;52.018;5.584;2023-06-10T10:05:16;30.20;43.00
67769;DHT22;54569;52.018;5.584;2023-06-10T10:07:43;30.40;43.60
67769;DHT22;54569;52.018;5.584;2023-06-10T10:10:10;30.50;43.10
67769;DHT22;54569;52.018;5.584;2023-06-10T10:12:38;30.50;42.90
67769;DHT22;54569;52.018;5.584;2023-06-10T10:15:06;30.70;42.70
67769;DHT22;54569;52.018;5.584;2023-06-10T10:17:34;30.80;42.30
67769;DHT22;54569;52.018;5.584;2023-06-10T10:20:04;30.90;42.40
67769;DHT22;54569;52.018;5.584;2023-06-10T10:22:42;30.90;43.10
67769;DHT22;54569;52.018;5.584;2023-06-10T10:25:13;30.90;40.00
67769;DHT22;54569;52.018;5.584;2023-06-10T10:27:55;31.10;41.30
67769;DHT22;54569;52.018;5.584;2023-06-10T10:30:22;31.20;40.50
67769;DHT22;54569;52.018;5.584;2023-06-10T10:33:06;31.40;41.50
67769;DHT22;54569;52.018;5.584;2023-06-10T10:35:36;31.40;40.50
67769;DHT22;54569;52.018;5.584;2023-06-10T10:38:03;31.50;40.80
67769;DHT22;54569;52.018;5.584;2023-06-10T10:40:29;31.50;40.90
67769;DHT22;54569;52.018;5.584;2023-06-10T10:42:56;31.60;41.40
67769;DHT22;54569;52.018;5.584;2023-06-10T10:45:23;31.60;40.90
67769;DHT22;54569;52.018;5.584;2023-06-10T10:47:53;31.60;40.40
67769;DHT22;54569;52.018;5.584;2023-06-10T10:50:21;31.60;40.30
67769;DHT22;54569;52.018;5.584;2023-06-10T10:55:19;31.70;38.70
67769;DHT22;54569;52.018;5.584;2023-06-10T10:57:44;31.60;40.10
67769;DHT22;54569;52.018;5.584;2023-06-10T11:00:11;31.60;39.80
67769;DHT22;54569;52.018;5.584;2023-06-10T11:02:44;31.50;39.70
67769;DHT22;54569;52.018;5.584;2023-06-10T11:05:16;31.50;39.60
67769;DHT22;54569;52.018;5.584;2023-06-10T11:07:52;31.50;38.80
67769;DHT22;54569;52.018;5.584;2023-06-10T11:10:32;31.40;38.00
67769;DHT22;54569;52.018;5.584;2023-06-10T11:12:59;31.30;38.90
67769;DHT22;54569;52.018;5.584;2023-06-10T11:15:29;31.30;39.50
67769;DHT22;54569;52.018;5.584;2023-06-10T11:18:12;31.50;39.30
67769;DHT22;54569;52.018;5.584;2023-06-10T11:23:11;31.60;38.70
67769;DHT22;54569;52.018;5.584;2023-06-10T11:25:49;31.60;39.20
67769;DHT22;54569;52.018;5.584;2023-06-10T11:28:19;31.60;38.90
67769;DHT22;54569;52.018;5.584;2023-06-10T11:30:46;31.60;38.70
67769;DHT22;54569;52.018;5.584;2023-06-10T11:33:16;31.60;38.80
67769;DHT22;54569;52.018;5.584;2023-06-10T11:35:43;31.80;38.00
67769;DHT22;54569;52.018;5.584;2023-06-10T11:38:09;31.80;38.30
67769;DHT22;54569;52.018;5.584;2023-06-10T11:40:36;31.80;38.20
67769;DHT22;54569;52.018;5.584;2023-06-10T11:43:04;31.90;38.40
67769;DHT22;54569;52.018;5.584;2023-06-10T11:45:29;32.00;37.70
67769;DHT22;54569;52.018;5.584;2023-06-10T11:47:56;32.10;37.50
67769;DHT22;54569;52.018;5.584;2023-06-10T11:50:32;32.00;37.30
67769;DHT22;54569;52.018;5.584;2023-06-10T11:52:58;32.00;36.90
67769;DHT22;54569;52.018;5.584;2023-06-10T11:55:46;32.00;38.20
67769;DHT22;54569;52.018;5.584;2023-06-10T11:58:21;32.10;37.40
67769;DHT22;54569;52.018;5.584;2023-06-10T12:00:52;32.10;37.10
67769;DHT22;54569;52.018;5.584;2023-06-10T12:03:19;32.10;37.20
67769;DHT22;54569;52.018;5.584;2023-06-10T12:06:03;32.00;37.50
67769;DHT22;54569;52.018;5.584;2023-06-10T12:08:29;32.00;36.40
67769;DHT22;54569;52.018;5.584;2023-06-10T12:10:56;32.00;37.40
67769;DHT22;54569;52.018;5.584;2023-06-10T12:13:23;32.00;37.20
67769;DHT22;54569;52.018;5.584;2023-06-10T12:15:51;32.10;37.40
67769;DHT22;54569;52.018;5.584;2023-06-10T12:18:21;32.10;36.80
67769;DHT22;54569;52.018;5.584;2023-06-10T12:20:48;32.00;37.50
67769;DHT22;54569;52.018;5.584;2023-06-10T12:23:15;32.00;36.70
67769;DHT22;54569;52.018;5.584;2023-06-10T12:25:53;32.00;36.80
67769;DHT22;54569;52.018;5.584;2023-06-10T12:28:23;32.00;35.70
67769;DHT22;54569;52.018;5.584;2023-06-10T12:30:50;32.00;36.70
67769;DHT22;54569;52.018;5.584;2023-06-10T12:33:22;32.00;36.20
67769;DHT22;54569;52.018;5.584;2023-06-10T12:35:52;31.90;36.30
67769;DHT22;54569;52.018;5.584;2023-06-10T12:38:25;32.00;36.90
67769;DHT22;54569;52.018;5.584;2023-06-10T12:40:54;32.00;35.30
67769;DHT22;54569;52.018;5.584;2023-06-10T12:43:24;32.00;36.40
67769;DHT22;54569;52.018;5.584;2023-06-10T12:45:51;31.90;35.90
67769;DHT22;54569;52.018;5.584;2023-06-10T12:48:24;31.80;36.30
67769;DHT22;54569;52.018;5.584;2023-06-10T12:50:54;31.90;35.70
67769;DHT22;54569;52.018;5.584;2023-06-10T12:53:21;31.90;36.20
67769;DHT22;54569;52.018;5.584;2023-06-10T12:55:48;31.90;37.10
67769;DHT22;54569;52.018;5.584;2023-06-10T12:58:14;31.90;36.40
67769;DHT22;54569;52.018;5.584;2023-06-10T13:00:40;31.80;36.60
67769;DHT22;54569;52.018;5.584;2023-06-10T13:03:08;31.80;36.50
67769;DHT22;54569;52.018;5.584;2023-06-10T13:05:35;31.70;36.50
67769;DHT22;54569;52.018;5.584;2023-06-10T13:08:04;31.70;36.40
67769;DHT22;54569;52.018;5.584;2023-06-10T13:10:30;31.80;36.20
67769;DHT22;54569;52.018;5.584;2023-06-10T13:12:56;31.60;36.20
67769;DHT22;54569;52.018;5.584;2023-06-10T13:15:22;31.60;36.00
67769;DHT22;54569;52.018;5.584;2023-06-10T13:17:47;31.60;36.30
67769;DHT22;54569;52.018;5.584;2023-06-10T13:20:14;31.60;36.40
67769;DHT22;54569;52.018;5.584;2023-06-10T13:22:42;31.70;36.20
67769;DHT22;54569;52.018;5.584;2023-06-10T13:25:08;31.70;35.90
67769;DHT22;54569;52.018;5.584;2023-06-10T13:27:35;31.60;35.80
67769;DHT22;54569;52.018;5.584;2023-06-10T13:30:04;31.60;35.70
67769;DHT22;54569;52.018;5.584;2023-06-10T13:32:30;31.50;36.20
67769;DHT22;54569;52.018;5.584;2023-06-10T13:34:56;31.50;36.00
67769;DHT22;54569;52.018;5.584;2023-06-10T13:37:22;31.50;35.90
67769;DHT22;54569;52.018;5.584;2023-06-10T13:39:48;31.40;36.00
67769;DHT22;54569;52.018;5.584;2023-06-10T13:42:22;31.40;35.90
67769;DHT22;54569;52.018;5.584;2023-06-10T13:44:48;31.50;35.50
67769;DHT22;54569;52.018;5.584;2023-06-10T13:47:14;31.50;36.40
67769;DHT22;54569;52.018;5.584;2023-06-10T13:49:40;31.50;36.20
67769;DHT22;54569;52.018;5.584;2023-06-10T13:52:07;31.50;35.90
67769;DHT22;54569;52.018;5.584;2023-06-10T13:54:33;31.50;35.50
67769;DHT22;54569;52.018;5.584;2023-06-10T13:56:59;31.50;36.20
67769;DHT22;54569;52.018;5.584;2023-06-10T13:59:25;31.60;36.00
67769;DHT22;54569;52.018;5.584;2023-06-10T14:01:51;31.70;36.00
67769;DHT22;54569;52.018;5.584;2023-06-10T14:04:17;31.60;35.60
67769;DHT22;54569;52.018;5.584;2023-06-10T14:06:42;31.50;35.80
67769;DHT22;54569;52.018;5.584;2023-06-10T14:09:09;31.40;35.90
67769;DHT22;54569;52.018;5.584;2023-06-10T14:11:34;31.30;35.50
67769;DHT22;54569;52.018;5.584;2023-06-10T14:14:00;31.40;35.70
67769;DHT22;54569;52.018;5.584;2023-06-10T14:16:26;31.40;35.60
67769;DHT22;54569;52.018;5.584;2023-06-10T14:18:52;31.40;35.20
67769;DHT22;54569;52.018;5.584;2023-06-10T14:21:18;31.30;35.40
67769;DHT22;54569;52.018;5.584;2023-06-10T14:23:44;31.30;36.80
67769;DHT22;54569;52.018;5.584;2023-06-10T14:26:11;31.30;35.70
67769;DHT22;54569;52.018;5.584;2023-06-10T14:28:39;31.30;36.00
67769;DHT22;54569;52.018;5.584;2023-06-10T14:31:04;31.30;35.00
67769;DHT22;54569;52.018;5.584;2023-06-10T14:33:30;31.20;35.30
67769;DHT22;54569;52.018;5.584;2023-06-10T14:35:57;31.30;35.40
67769;DHT22;54569;52.018;5.584;2023-06-10T14:38:23;31.30;35.50
67769;DHT22;54569;52.018;5.584;2023-06-10T14:40:48;31.30;35.10
67769;DHT22;54569;52.018;5.584;2023-06-10T14:43:14;31.20;35.40
67769;DHT22;54569;52.018;5.584;2023-06-10T14:45:40;31.10;36.40
67769;DHT22;54569;52.018;5.584;2023-06-10T14:48:07;31.10;35.30
67769;DHT22;54569;52.018;5.584;2023-06-10T14:50:34;31.10;35.00
67769;DHT22;54569;52.018;5.584;2023-06-10T14:53:00;31.10;35.00
67769;DHT22;54569;52.018;5.584;2023-06-10T14:55:26;31.10;36.00
67769;DHT22;54569;52.018;5.584;2023-06-10T14:57:52;31.10;36.20
67769;DHT22;54569;52.018;5.584;2023-06-10T15:00:18;31.20;35.50
67769;DHT22;54569;52.018;5.584;2023-06-10T15:02:47;31.20;35.80
67769;DHT22;54569;52.018;5.584;2023-06-10T15:05:14;31.20;35.60
67769;DHT22;54569;52.018;5.584;2023-06-10T15:07:41;31.30;35.40
67769;DHT22;54569;52.018;5.584;2023-06-10T15:10:07;31.20;35.30
67769;DHT22;54569;52.018;5.584;2023-06-10T15:12:34;31.10;35.60
67769;DHT22;54569;52.018;5.584;2023-06-10T15:14:59;31.10;35.20
67769;DHT22;54569;52.018;5.584;2023-06-10T15:17:25;31.10;34.90
67769;DHT22;54569;52.018;5.584;2023-06-10T15:19:51;31.10;35.50
67769;DHT22;54569;52.018;5.584;2023-06-10T15:22:17;31.00;34.90
67769;DHT22;54569;52.018;5.584;2023-06-10T15:24:43;30.90;35.40
67769;DHT22;54569;52.018;5.584;2023-06-10T15:27:11;30.90;35.30
67769;DHT22;54569;52.018;5.584;2023-06-10T15:29:37;30.90;35.30
67769;DHT22;54569;52.018;5.584;2023-06-10T15:32:03;30.90;35.80
67769;DHT22;54569;52.018;5.584;2023-06-10T15:34:28;30.90;35.60
67769;DHT22;54569;52.018;5.584;2023-06-10T15:36:54;30.90;35.30